sensor_id;sensor_type;location;lat;lon;timestamp;pressure;altitude;pressure_sealevel;temperature;humidity
35806;BME280;21925;44.608;11.580;2023-04-29T00:00:13;101542.72;;;17.64;100.00
35806;BME280;21925;44.608;11.580;2023-04-29T00:02:38;101548.91;;;17.06;100.00
35806;BME280;21925;44.608;11.580;2023-04-29T00:05:04;101545.28;;;17.50;100.00
35806;BME280;21925;44.608;11.580;2023-04-29T00:07:30;101548.56;;;17.85;100.00
35806;BME280;21925;44.608;11.580;2023-04-29T00:09:57;101548.97;;;17.87;100.00
35806;BME280;21925;44.608;11.580;2023-04-29T00:12:22;101518.06;;;17.07;100.00
35806;BME280;21925;44.608;11.580;2023-04-29T00:14:48;101546.41;;;17.46;100.00
35806;BME280;21925;44.608;11.580;2023-04-29T00:17:14;101519.56;;;17.53;100.00
35806;BME280;21925;44.608;11.580;2023-04-29T00:19:40;101539.31;;;17.48;100.00
35806;BME280;21925;44.608;11.580;2023-04-29T00:22:06;101521.09;;;17.25;100.00
35806;BME280;21925;44.608;11.580;2023-04-29T00:24:31;101522.81;;;16.84;100.00
35806;BME280;21925;44.608;11.580;2023-04-29T00:26:57;101519.84;;;16.96;100.00
35806;BME280;21925;44.608;11.580;2023-04-29T00:29:22;101524.69;;;17.25;100.00
35806;BME280;21925;44.608;11.580;2023-04-29T00:31:48;101520.50;;;17.12;100.00
35806;BME280;21925;44.608;11.580;2023-04-29T00:34:14;101500.81;;;16.95;100.00
35806;BME280;21925;44.608;11.580;2023-04-29T00:36:39;101515.31;;;17.33;100.00
35806;BME280;21925;44.608;11.580;2023-04-29T00:39:05;101509.25;;;17.02;100.00
35806;BME280;21925;44.608;11.580;2023-04-29T00:41:32;101517.84;;;16.93;100.00
35806;BME280;21925;44.608;11.580;2023-04-29T00:43:57;101490.66;;;17.02;100.00
35806;BME280;21925;44.608;11.580;2023-04-29T00:46:23;101498.69;;;17.33;100.00
35806;BME280;21925;44.608;11.580;2023-04-29T00:48:49;101490.34;;;17.59;100.00
35806;BME280;21925;44.608;11.580;2023-04-29T00:51:15;101496.22;;;17.54;100.00
35806;BME280;21925;44.608;11.580;2023-04-29T00:53:41;101488.91;;;17.43;100.00
35806;BME280;21925;44.608;11.580;2023-04-29T00:56:07;101495.06;;;17.29;100.00
35806;BME280;21925;44.608;11.580;2023-04-29T00:58:34;101478.75;;;17.50;100.00
35806;BME280;21925;44.608;11.580;2023-04-29T01:01:01;101467.03;;;17.63;100.00
35806;BME280;21925;44.608;11.580;2023-04-29T01:03:31;101471.63;;;17.27;100.00
35806;BME280;21925;44.608;11.580;2023-04-29T01:11:51;101497.22;;;17.17;100.00
35806;BME280;21925;44.608;11.580;2023-04-29T01:14:17;101495.66;;;16.93;100.00
35806;BME280;21925;44.608;11.580;2023-04-29T01:16:50;101509.00;;;17.10;100.00
35806;BME280;21925;44.608;11.580;2023-04-29T01:19:24;101502.69;;;17.36;100.00
35806;BME280;21925;44.608;11.580;2023-04-29T01:21:56;101505.06;;;17.37;99.84
35806;BME280;21925;44.608;11.580;2023-04-29T01:24:22;101507.75;;;16.82;100.00
35806;BME280;21925;44.608;11.580;2023-04-29T01:26:56;101498.28;;;16.83;100.00
35806;BME280;21925;44.608;11.580;2023-04-29T01:32:18;101511.19;;;16.76;100.00
35806;BME280;21925;44.608;11.580;2023-04-29T01:34:54;101509.09;;;16.91;100.00
35806;BME280;21925;44.608;11.580;2023-04-29T01:37:37;101519.94;;;17.00;100.00
35806;BME280;21925;44.608;11.580;2023-04-29T01:40:11;101501.09;;;17.12;100.00
35806;BME280;21925;44.608;11.580;2023-04-29T01:42:58;101477.78;;;16.87;100.00
35806;BME280;21925;44.608;11.580;2023-04-29T01:45:26;101508.78;;;16.74;100.00
35806;BME280;21925;44.608;11.580;2023-04-29T01:47:53;101500.44;;;16.96;100.00
35806;BME280;21925;44.608;11.580;2023-04-29T01:50:21;101484.91;;;17.14;100.00
35806;BME280;21925;44.608;11.580;2023-04-29T01:52:46;101482.66;;;16.97;100.00
35806;BME280;21925;44.608;11.580;2023-04-29T01:55:13;101500.16;;;16.79;100.00
35806;BME280;21925;44.608;11.580;2023-04-29T01:57:50;101516.50;;;16.62;100.00
35806;BME280;21925;44.608;11.580;2023-04-29T02:00:29;101518.00;;;16.18;100.00
35806;BME280;21925;44.608;11.580;2023-04-29T02:02:55;101507.66;;;16.34;100.00
35806;BME280;21925;44.608;11.580;2023-04-29T02:05:41;101498.09;;;16.50;100.00
35806;BME280;21925;44.608;11.580;2023-04-29T02:08:07;101466.72;;;16.65;100.00
35806;BME280;21925;44.608;11.580;2023-04-29T02:10:37;101501.66;;;16.73;100.00
35806;BME280;21925;44.608;11.580;2023-04-29T02:13:13;101504.53;;;17.02;100.00
35806;BME280;21925;44.608;11.580;2023-04-29T02:15:39;101483.09;;;16.99;100.00
35806;BME280;21925;44.608;11.580;2023-04-29T02:18:05;101488.84;;;17.13;100.00
35806;BME280;21925;44.608;11.580;2023-04-29T02:20:31;101497.81;;;17.29;100.00
35806;BME280;21925;44.608;11.580;2023-04-29T02:22:56;101499.94;;;17.13;100.00
35806;BME280;21925;44.608;11.580;2023-04-29T02:25:22;101488.53;;;17.18;100.00
35806;BME280;21925;44.608;11.580;2023-04-29T02:27:47;101503.72;;;17.02;100.00
35806;BME280;21925;44.608;11.580;2023-04-29T02:30:13;101506.53;;;17.05;100.00
35806;BME280;21925;44.608;11.580;2023-04-29T02:32:39;101509.22;;;17.24;100.00
35806;BME280;21925;44.608;11.580;2023-04-29T02:35:05;101502.84;;;17.20;100.00
35806;BME280;21925;44.608;11.580;2023-04-29T02:37:33;101504.94;;;17.04;100.00
35806;BME280;21925;44.608;11.580;2023-04-29T02:39:58;101509.41;;;17.12;100.00
35806;BME280;21925;44.608;11.580;2023-04-29T02:42:24;101494.34;;;17.10;100.00
35806;BME280;21925;44.608;11.580;2023-04-29T02:44:49;101482.00;;;16.81;100.00
35806;BME280;21925;44.608;11.580;2023-04-29T02:47:15;101509.88;;;16.28;100.00
35806;BME280;21925;44.608;11.580;2023-04-29T02:49:40;101492.59;;;15.75;100.00
35806;BME280;21925;44.608;11.580;2023-04-29T02:52:06;101495.31;;;15.90;100.00
35806;BME280;21925;44.608;11.580;2023-04-29T02:54:33;101512.25;;;16.07;100.00
35806;BME280;21925;44.608;11.580;2023-04-29T02:56:58;101512.00;;;16.16;100.00
35806;BME280;21925;44.608;11.580;2023-04-29T02:59:24;101517.84;;;16.11;100.00
35806;BME280;21925;44.608;11.580;2023-04-29T03:01:49;101493.63;;;15.86;100.00
35806;BME280;21925;44.608;11.580;2023-04-29T03:04:15;101471.78;;;16.41;100.00
35806;BME280;21925;44.608;11.580;2023-04-29T03:06:40;101472.19;;;16.62;100.00
35806;BME280;21925;44.608;11.580;2023-04-29T03:09:06;101476.34;;;16.75;100.00
35806;BME280;21925;44.608;11.580;2023-04-29T03:11:32;101487.94;;;16.58;100.00
35806;BME280;21925;44.608;11.580;2023-04-29T03:13:57;101498.13;;;16.12;100.00
35806;BME280;21925;44.608;11.580;2023-04-29T03:16:23;101494.88;;;15.88;100.00
35806;BME280;21925;44.608;11.580;2023-04-29T03:18:49;101486.53;;;16.26;100.00
35806;BME280;21925;44.608;11.580;2023-04-29T03:21:15;101457.97;;;16.63;100.00
35806;BME280;21925;44.608;11.580;2023-04-29T03:23:40;101445.22;;;16.81;100.00
35806;BME280;21925;44.608;11.580;2023-04-29T03:26:09;101461.78;;;16.77;100.00
35806;BME280;21925;44.608;11.580;2023-04-29T03:28:36;101491.47;;;16.80;100.00
35806;BME280;21925;44.608;11.580;2023-04-29T03:31:01;101489.53;;;16.59;100.00
35806;BME280;21925;44.608;11.580;2023-04-29T03:33:27;101498.50;;;16.30;100.00
35806;BME280;21925;44.608;11.580;2023-04-29T03:35:53;101490.44;;;16.25;100.00
35806;BME280;21925;44.608;11.580;2023-04-29T03:38:33;101481.16;;;16.33;100.00
35806;BME280;21925;44.608;11.580;2023-04-29T03:41:00;101485.06;;;16.32;100.00
35806;BME280;21925;44.608;11.580;2023-04-29T03:43:26;101495.47;;;16.19;100.00
35806;BME280;21925;44.608;11.580;2023-04-29T03:45:52;101466.13;;;16.34;100.00
35806;BME280;21925;44.608;11.580;2023-04-29T03:48:20;101439.63;;;16.33;100.00
35806;BME280;21925;44.608;11.580;2023-04-29T03:50:46;101473.00;;;16.21;100.00
35806;BME280;21925;44.608;11.580;2023-04-29T03:53:12;101469.34;;;16.17;100.00
35806;BME280;21925;44.608;11.580;2023-04-29T03:55:37;101492.44;;;16.05;100.00
35806;BME280;21925;44.608;11.580;2023-04-29T03:58:04;101500.22;;;16.00;100.00
35806;BME280;21925;44.608;11.580;2023-04-29T04:00:30;101499.50;;;16.03;100.00
35806;BME280;21925;44.608;11.580;2023-04-29T04:02:57;101497.41;;;16.15;100.00
35806;BME280;21925;44.608;11.580;2023-04-29T04:05:24;101487.03;;;16.12;100.00
35806;BME280;21925;44.608;11.580;2023-04-29T04:07:54;101460.13;;;16.09;100.00
35806;BME280;21925;44.608;11.580;2023-04-29T04:10:34;101456.00;;;16.41;100.00
35806;BME280;21925;44.608;11.580;2023-04-29T04:13:04;101456.41;;;16.66;100.00
35806;BME280;21925;44.608;11.580;2023-04-29T04:15:30;101459.22;;;16.91;100.00
35806;BME280;21925;44.608;11.580;2023-04-29T04:17:57;101474.25;;;16.90;100.00
35806;BME280;21925;44.608;11.580;2023-04-29T04:20:22;101482.22;;;16.70;100.00
35806;BME280;21925;44.608;11.580;2023-04-29T04:22:48;101450.09;;;16.65;100.00
35806;BME280;21925;44.608;11.580;2023-04-29T04:25:26;101468.66;;;17.13;100.00
35806;BME280;21925;44.608;11.580;2023-04-29T04:27:58;101469.47;;;17.39;100.00
35806;BME280;21925;44.608;11.580;2023-04-29T04:30:40;101477.78;;;17.39;100.00
35806;BME280;21925;44.608;11.580;2023-04-29T04:33:07;101471.22;;;17.51;100.00
35806;BME280;21925;44.608;11.580;2023-04-29T04:35:35;101484.78;;;17.30;100.00
35806;BME280;21925;44.608;11.580;2023-04-29T04:38:01;101461.34;;;17.27;100.00
35806;BME280;21925;44.608;11.580;2023-04-29T04:40:26;101495.81;;;17.52;100.00
35806;BME280;21925;44.608;11.580;2023-04-29T04:43:09;101466.38;;;17.44;100.00
35806;BME280;21925;44.608;11.580;2023-04-29T04:45:38;101477.72;;;17.10;100.00
35806;BME280;21925;44.608;11.580;2023-04-29T04:48:04;101502.47;;;16.99;100.00
35806;BME280;21925;44.608;11.580;2023-04-29T04:50:32;101506.25;;;16.88;100.00
35806;BME280;21925;44.608;11.580;2023-04-29T04:52:59;101503.75;;;17.05;100.00
35806;BME280;21925;44.608;11.580;2023-04-29T04:55:47;101489.59;;;17.10;100.00
35806;BME280;21925;44.608;11.580;2023-04-29T04:58:14;101474.78;;;17.25;100.00
35806;BME280;21925;44.608;11.580;2023-04-29T05:00:43;101464.31;;;16.89;100.00
35806;BME280;21925;44.608;11.580;2023-04-29T05:03:09;101495.66;;;16.93;100.00
35806;BME280;21925;44.608;11.580;2023-04-29T05:05:35;101507.28;;;17.02;100.00
35806;BME280;21925;44.608;11.580;2023-04-29T05:08:00;101469.47;;;16.87;100.00
35806;BME280;21925;44.608;11.580;2023-04-29T05:10:36;101501.09;;;16.86;100.00
35806;BME280;21925;44.608;11.580;2023-04-29T05:13:03;101504.03;;;16.75;100.00
35806;BME280;21925;44.608;11.580;2023-04-29T05:15:28;101513.78;;;16.65;100.00
35806;BME280;21925;44.608;11.580;2023-04-29T05:17:57;101497.34;;;16.76;100.00
35806;BME280;21925;44.608;11.580;2023-04-29T05:20:23;101507.03;;;16.88;100.00
35806;BME280;21925;44.608;11.580;2023-04-29T05:22:49;101492.13;;;16.71;100.00
35806;BME280;21925;44.608;11.580;2023-04-29T05:25:15;101505.88;;;16.89;100.00
35806;BME280;21925;44.608;11.580;2023-04-29T05:27:41;101511.00;;;17.13;100.00
35806;BME280;21925;44.608;11.580;2023-04-29T05:30:10;101507.19;;;17.21;100.00
35806;BME280;21925;44.608;11.580;2023-04-29T05:32:36;101528.81;;;17.12;100.00
35806;BME280;21925;44.608;11.580;2023-04-29T05:35:03;101515.97;;;17.01;100.00
35806;BME280;21925;44.608;11.580;2023-04-29T05:37:29;101512.06;;;17.05;100.00
35806;BME280;21925;44.608;11.580;2023-04-29T05:40:07;101511.00;;;17.13;100.00
35806;BME280;21925;44.608;11.580;2023-04-29T05:42:33;101526.47;;;17.37;100.00
35806;BME280;21925;44.608;11.580;2023-04-29T05:44:59;101471.47;;;17.16;100.00
35806;BME280;21925;44.608;11.580;2023-04-29T05:47:25;101498.38;;;17.67;100.00
35806;BME280;21925;44.608;11.580;2023-04-29T05:49:51;101514.19;;;17.63;100.00
35806;BME280;21925;44.608;11.580;2023-04-29T05:52:16;101530.88;;;17.67;100.00
35806;BME280;21925;44.608;11.580;2023-04-29T05:54:45;101504.47;;;17.51;100.00
35806;BME280;21925;44.608;11.580;2023-04-29T05:57:11;101520.53;;;17.64;100.00
35806;BME280;21925;44.608;11.580;2023-04-29T05:59:38;101528.72;;;17.83;100.00
35806;BME280;21925;44.608;11.580;2023-04-29T06:02:04;101516.63;;;17.98;100.00
35806;BME280;21925;44.608;11.580;2023-04-29T06:04:32;101510.94;;;18.20;100.00
35806;BME280;21925;44.608;11.580;2023-04-29T06:07:16;101527.22;;;18.58;100.00
35806;BME280;21925;44.608;11.580;2023-04-29T06:09:53;101504.28;;;18.64;100.00
35806;BME280;21925;44.608;11.580;2023-04-29T06:12:19;101502.09;;;18.87;100.00
35806;BME280;21925;44.608;11.580;2023-04-29T06:14:45;101518.69;;;19.20;100.00
35806;BME280;21925;44.608;11.580;2023-04-29T06:17:11;101524.13;;;18.66;100.00
35806;BME280;21925;44.608;11.580;2023-04-29T06:19:37;101503.72;;;18.88;100.00
35806;BME280;21925;44.608;11.580;2023-04-29T06:22:02;101485.81;;;19.36;100.00
35806;BME280;21925;44.608;11.580;2023-04-29T06:24:29;101495.50;;;19.63;100.00
35806;BME280;21925;44.608;11.580;2023-04-29T06:26:55;101524.09;;;19.56;100.00
35806;BME280;21925;44.608;11.580;2023-04-29T06:29:21;101487.41;;;19.33;100.00
35806;BME280;21925;44.608;11.580;2023-04-29T06:31:47;101524.72;;;19.29;100.00
35806;BME280;21925;44.608;11.580;2023-04-29T06:34:12;101530.22;;;19.22;100.00
35806;BME280;21925;44.608;11.580;2023-04-29T06:36:54;101540.47;;;19.15;100.00
35806;BME280;21925;44.608;11.580;2023-04-29T06:39:39;101511.41;;;19.05;100.00
35806;BME280;21925;44.608;11.580;2023-04-29T06:42:27;101528.56;;;19.14;100.00
35806;BME280;21925;44.608;11.580;2023-04-29T06:45:11;101524.56;;;19.12;100.00
35806;BME280;21925;44.608;11.580;2023-04-29T06:47:40;101528.06;;;19.05;100.00
35806;BME280;21925;44.608;11.580;2023-04-29T06:50:11;101525.00;;;19.17;100.00
35806;BME280;21925;44.608;11.580;2023-04-29T06:52:37;101549.25;;;19.20;100.00
35806;BME280;21925;44.608;11.580;2023-04-29T06:55:02;101556.81;;;19.80;100.00
35806;BME280;21925;44.608;11.580;2023-04-29T06:57:28;101551.59;;;19.72;100.00
35806;BME280;21925;44.608;11.580;2023-04-29T06:59:53;101539.88;;;20.06;100.00
35806;BME280;21925;44.608;11.580;2023-04-29T07:02:19;101522.59;;;19.80;100.00
35806;BME280;21925;44.608;11.580;2023-04-29T07:04:46;101528.16;;;19.76;100.00
35806;BME280;21925;44.608;11.580;2023-04-29T07:07:14;101533.25;;;19.60;100.00
35806;BME280;21925;44.608;11.580;2023-04-29T07:09:40;101544.09;;;19.79;100.00
35806;BME280;21925;44.608;11.580;2023-04-29T07:12:05;101558.66;;;19.55;100.00
35806;BME280;21925;44.608;11.580;2023-04-29T07:14:31;101536.78;;;19.50;100.00
35806;BME280;21925;44.608;11.580;2023-04-29T07:16:57;101536.13;;;19.78;100.00
35806;BME280;21925;44.608;11.580;2023-04-29T07:19:23;101520.28;;;19.89;100.00
35806;BME280;21925;44.608;11.580;2023-04-29T07:21:48;101545.84;;;20.11;100.00
35806;BME280;21925;44.608;11.580;2023-04-29T07:24:14;101530.22;;;19.90;100.00
35806;BME280;21925;44.608;11.580;2023-04-29T07:26:42;101540.59;;;19.93;100.00
35806;BME280;21925;44.608;11.580;2023-04-29T07:29:09;101546.59;;;19.98;100.00
35806;BME280;21925;44.608;11.580;2023-04-29T07:31:34;101540.13;;;19.84;100.00
35806;BME280;21925;44.608;11.580;2023-04-29T07:34:01;101545.78;;;19.98;100.00
35806;BME280;21925;44.608;11.580;2023-04-29T07:36:27;101541.72;;;19.85;100.00
35806;BME280;21925;44.608;11.580;2023-04-29T07:38:53;101545.50;;;20.23;100.00
35806;BME280;21925;44.608;11.580;2023-04-29T07:41:19;101534.34;;;20.16;100.00
35806;BME280;21925;44.608;11.580;2023-04-29T07:43:45;101550.69;;;20.28;100.00
35806;BME280;21925;44.608;11.580;2023-04-29T07:46:11;101556.66;;;20.23;100.00
35806;BME280;21925;44.608;11.580;2023-04-29T07:48:39;101572.91;;;20.14;100.00
35806;BME280;21925;44.608;11.580;2023-04-29T07:51:05;101517.66;;;19.45;100.00
35806;BME280;21925;44.608;11.580;2023-04-29T07:53:31;101566.25;;;19.58;100.00
35806;BME280;21925;44.608;11.580;2023-04-29T07:55:56;101542.25;;;19.40;100.00
35806;BME280;21925;44.608;11.580;2023-04-29T07:58:23;101563.81;;;19.57;100.00
35806;BME280;21925;44.608;11.580;2023-04-29T08:00:49;101593.78;;;19.81;100.00
35806;BME280;21925;44.608;11.580;2023-04-29T08:03:14;101593.47;;;19.93;100.00
35806;BME280;21925;44.608;11.580;2023-04-29T08:05:40;101591.47;;;19.93;100.00
35806;BME280;21925;44.608;11.580;2023-04-29T08:08:07;101582.25;;;19.79;100.00
35806;BME280;21925;44.608;11.580;2023-04-29T08:10:32;101591.94;;;19.99;100.00
35806;BME280;21925;44.608;11.580;2023-04-29T08:13:02;101582.94;;;19.62;100.00
35806;BME280;21925;44.608;11.580;2023-04-29T08:15:27;101599.38;;;19.88;100.00
35806;BME280;21925;44.608;11.580;2023-04-29T08:17:53;101591.78;;;19.74;100.00
35806;BME280;21925;44.608;11.580;2023-04-29T08:20:19;101573.34;;;19.56;100.00
35806;BME280;21925;44.608;11.580;2023-04-29T08:22:45;101591.53;;;19.43;100.00
35806;BME280;21925;44.608;11.580;2023-04-29T08:25:11;101594.06;;;19.62;100.00
35806;BME280;21925;44.608;11.580;2023-04-29T08:27:37;101585.63;;;20.08;100.00
35806;BME280;21925;44.608;11.580;2023-04-29T08:30:02;101619.06;;;20.12;100.00
35806;BME280;21925;44.608;11.580;2023-04-29T08:32:28;101615.16;;;20.34;100.00
35806;BME280;21925;44.608;11.580;2023-04-29T08:34:54;101596.53;;;20.48;100.00
35806;BME280;21925;44.608;11.580;2023-04-29T08:37:20;101615.97;;;20.31;100.00
35806;BME280;21925;44.608;11.580;2023-04-29T08:39:46;101620.69;;;20.23;100.00
35806;BME280;21925;44.608;11.580;2023-04-29T08:42:12;101627.00;;;20.13;100.00
35806;BME280;21925;44.608;11.580;2023-04-29T08:44:39;101598.28;;;19.96;100.00
35806;BME280;21925;44.608;11.580;2023-04-29T08:47:05;101618.16;;;20.83;100.00
35806;BME280;21925;44.608;11.580;2023-04-29T08:49:31;101624.91;;;20.85;100.00
35806;BME280;21925;44.608;11.580;2023-04-29T08:51:58;101622.94;;;20.82;100.00
35806;BME280;21925;44.608;11.580;2023-04-29T08:54:23;101592.97;;;20.58;100.00
35806;BME280;21925;44.608;11.580;2023-04-29T08:56:50;101624.56;;;21.07;100.00
35806;BME280;21925;44.608;11.580;2023-04-29T08:59:18;101613.00;;;21.02;100.00
35806;BME280;21925;44.608;11.580;2023-04-29T09:01:46;101583.84;;;20.68;100.00
35806;BME280;21925;44.608;11.580;2023-04-29T09:04:35;101636.88;;;20.79;100.00
35806;BME280;21925;44.608;11.580;2023-04-29T09:07:03;101625.75;;;20.89;100.00
35806;BME280;21925;44.608;11.580;2023-04-29T09:09:30;101603.38;;;20.75;100.00
35806;BME280;21925;44.608;11.580;2023-04-29T09:11:57;101607.03;;;21.03;100.00
35806;BME280;21925;44.608;11.580;2023-04-29T09:14:23;101594.66;;;20.97;100.00
35806;BME280;21925;44.608;11.580;2023-04-29T09:16:49;101619.34;;;20.92;100.00
35806;BME280;21925;44.608;11.580;2023-04-29T09:19:31;101628.16;;;21.46;100.00
35806;BME280;21925;44.608;11.580;2023-04-29T09:21:58;101623.38;;;21.54;98.51
35806;BME280;21925;44.608;11.580;2023-04-29T09:24:28;101627.78;;;21.51;98.50
35806;BME280;21925;44.608;11.580;2023-04-29T09:26:55;101622.59;;;21.46;97.76
35806;BME280;21925;44.608;11.580;2023-04-29T09:29:21;101623.00;;;21.38;98.42
35806;BME280;21925;44.608;11.580;2023-04-29T09:31:47;101615.03;;;21.40;98.78
35806;BME280;21925;44.608;11.580;2023-04-29T09:34:13;101615.41;;;21.24;100.00
35806;BME280;21925;44.608;11.580;2023-04-29T09:36:46;101605.06;;;21.42;98.29
35806;BME280;21925;44.608;11.580;2023-04-29T09:39:19;101601.09;;;21.36;99.66
35806;BME280;21925;44.608;11.580;2023-04-29T09:44:19;101616.59;;;21.06;100.00
35806;BME280;21925;44.608;11.580;2023-04-29T09:47:07;101608.25;;;21.06;100.00
35806;BME280;21925;44.608;11.580;2023-04-29T09:49:38;101616.59;;;20.99;100.00
35806;BME280;21925;44.608;11.580;2023-04-29T09:52:10;101606.22;;;20.89;100.00
35806;BME280;21925;44.608;11.580;2023-04-29T09:54:38;101610.22;;;21.44;100.00
35806;BME280;21925;44.608;11.580;2023-04-29T09:57:05;101596.31;;;21.65;100.00
35806;BME280;21925;44.608;11.580;2023-04-29T09:59:33;101598.66;;;21.49;99.07
35806;BME280;21925;44.608;11.580;2023-04-29T10:02:01;101605.84;;;21.36;100.00
35806;BME280;21925;44.608;11.580;2023-04-29T10:04:34;101572.75;;;21.45;100.00
35806;BME280;21925;44.608;11.580;2023-04-29T10:07:00;101597.47;;;21.77;100.00
35806;BME280;21925;44.608;11.580;2023-04-29T10:09:27;101594.66;;;21.84;99.08
35806;BME280;21925;44.608;11.580;2023-04-29T10:11:53;101603.31;;;22.25;94.31
35806;BME280;21925;44.608;11.580;2023-04-29T10:14:20;101588.88;;;22.44;94.98
35806;BME280;21925;44.608;11.580;2023-04-29T10:16:48;101593.94;;;22.66;98.06
35806;BME280;21925;44.608;11.580;2023-04-29T10:19:25;101589.25;;;22.49;95.76
35806;BME280;21925;44.608;11.580;2023-04-29T10:21:53;101580.13;;;22.35;95.09
35806;BME280;21925;44.608;11.580;2023-04-29T10:24:20;101559.91;;;22.81;95.40
35806;BME280;21925;44.608;11.580;2023-04-29T10:26:50;101578.47;;;22.51;93.20
35806;BME280;21925;44.608;11.580;2023-04-29T10:29:16;101552.13;;;22.52;94.88
35806;BME280;21925;44.608;11.580;2023-04-29T10:31:42;101579.59;;;23.22;91.77
35806;BME280;21925;44.608;11.580;2023-04-29T10:34:10;101579.28;;;23.56;93.80
35806;BME280;21925;44.608;11.580;2023-04-29T10:36:37;101561.75;;;23.49;88.93
35806;BME280;21925;44.608;11.580;2023-04-29T10:39:04;101569.09;;;23.36;88.57
35806;BME280;21925;44.608;11.580;2023-04-29T10:41:36;101563.28;;;23.57;88.07
35806;BME280;21925;44.608;11.580;2023-04-29T10:44:09;101562.47;;;23.60;88.20
35806;BME280;21925;44.608;11.580;2023-04-29T10:46:34;101547.84;;;23.42;88.93
35806;BME280;21925;44.608;11.580;2023-04-29T10:49:03;101557.34;;;23.08;87.00
35806;BME280;21925;44.608;11.580;2023-04-29T10:51:41;101558.28;;;22.87;88.34
35806;BME280;21925;44.608;11.580;2023-04-29T10:54:12;101564.19;;;22.35;92.63
35806;BME280;21925;44.608;11.580;2023-04-29T10:59:17;101542.50;;;22.56;90.06
35806;BME280;21925;44.608;11.580;2023-04-29T11:04:11;101517.69;;;22.65;90.86
35806;BME280;21925;44.608;11.580;2023-04-29T11:06:39;101530.03;;;22.68;89.38
35806;BME280;21925;44.608;11.580;2023-04-29T11:09:23;101509.09;;;22.25;90.81
35806;BME280;21925;44.608;11.580;2023-04-29T11:14:36;101516.63;;;23.00;87.98
35806;BME280;21925;44.608;11.580;2023-04-29T11:17:22;101519.09;;;23.34;86.45
35806;BME280;21925;44.608;11.580;2023-04-29T11:19:51;101512.22;;;23.42;85.14
35806;BME280;21925;44.608;11.580;2023-04-29T11:22:25;101522.72;;;23.35;86.95
35806;BME280;21925;44.608;11.580;2023-04-29T11:24:58;101510.81;;;23.64;85.46
35806;BME280;21925;44.608;11.580;2023-04-29T11:27:28;101485.66;;;23.94;85.49
35806;BME280;21925;44.608;11.580;2023-04-29T11:29:55;101523.44;;;24.72;81.83
35806;BME280;21925;44.608;11.580;2023-04-29T11:32:31;101520.63;;;24.72;82.08
35806;BME280;21925;44.608;11.580;2023-04-29T11:35:10;101524.88;;;25.29;80.56
35806;BME280;21925;44.608;11.580;2023-04-29T11:37:36;101528.88;;;25.32;78.59
35806;BME280;21925;44.608;11.580;2023-04-29T11:40:03;101523.56;;;25.57;80.73
35806;BME280;21925;44.608;11.580;2023-04-29T11:42:29;101489.19;;;25.30;72.42
35806;BME280;21925;44.608;11.580;2023-04-29T11:44:54;101535.47;;;25.64;74.94
35806;BME280;21925;44.608;11.580;2023-04-29T11:47:26;101516.38;;;25.98;76.18
35806;BME280;21925;44.608;11.580;2023-04-29T11:49:52;101528.25;;;26.05;75.07
35806;BME280;21925;44.608;11.580;2023-04-29T11:52:19;101524.06;;;26.33;73.22
35806;BME280;21925;44.608;11.580;2023-04-29T11:54:46;101520.25;;;26.04;71.94
35806;BME280;21925;44.608;11.580;2023-04-29T11:57:12;101482.28;;;25.96;73.00
35806;BME280;21925;44.608;11.580;2023-04-29T11:59:37;101520.66;;;25.41;71.52
35806;BME280;21925;44.608;11.580;2023-04-29T12:02:03;101529.41;;;25.23;75.11
35806;BME280;21925;44.608;11.580;2023-04-29T12:04:29;101509.75;;;25.66;76.98
35806;BME280;21925;44.608;11.580;2023-04-29T12:06:56;101527.63;;;25.56;71.56
35806;BME280;21925;44.608;11.580;2023-04-29T12:09:23;101522.25;;;24.96;73.81
35806;BME280;21925;44.608;11.580;2023-04-29T12:11:49;101504.00;;;24.85;75.25
35806;BME280;21925;44.608;11.580;2023-04-29T12:14:15;101501.13;;;24.88;74.10
35806;BME280;21925;44.608;11.580;2023-04-29T12:16:41;101522.03;;;24.84;75.97
35806;BME280;21925;44.608;11.580;2023-04-29T12:19:07;101499.22;;;25.31;74.76
35806;BME280;21925;44.608;11.580;2023-04-29T12:21:34;101431.50;;;24.04;74.91
35806;BME280;21925;44.608;11.580;2023-04-29T12:24:01;101490.88;;;24.52;75.72
35806;BME280;21925;44.608;11.580;2023-04-29T12:26:29;101514.06;;;24.26;76.54
35806;BME280;21925;44.608;11.580;2023-04-29T12:28:58;101492.53;;;23.90;78.13
35806;BME280;21925;44.608;11.580;2023-04-29T12:31:31;101523.06;;;24.44;78.85
35806;BME280;21925;44.608;11.580;2023-04-29T12:33:58;101517.13;;;24.65;76.91
35806;BME280;21925;44.608;11.580;2023-04-29T12:36:23;101523.59;;;24.62;77.03
35806;BME280;21925;44.608;11.580;2023-04-29T12:38:49;101498.69;;;24.64;74.63
35806;BME280;21925;44.608;11.580;2023-04-29T12:41:14;101502.56;;;24.17;75.74
35806;BME280;21925;44.608;11.580;2023-04-29T12:43:41;101512.47;;;24.25;79.04
35806;BME280;21925;44.608;11.580;2023-04-29T12:46:08;101513.97;;;24.63;78.03
35806;BME280;21925;44.608;11.580;2023-04-29T12:48:35;101525.34;;;25.01;76.15
35806;BME280;21925;44.608;11.580;2023-04-29T12:51:19;101520.69;;;24.69;75.27
35806;BME280;21925;44.608;11.580;2023-04-29T12:53:45;101510.06;;;25.71;75.93
35806;BME280;21925;44.608;11.580;2023-04-29T12:56:11;101493.81;;;25.82;70.82